Flight Track Log - Related Links

Times and Time Zones

All times are in EDT time to prevent confusion due to time zone crossing. See the N27XP flight status page for this flight to view local times or setup timezone preferences in your user account.

Time Position Orientation Groundspeed Altitude Reporting Facility
EDT Latitude Longitude Course Direction KTS MPH feet Rate Location/Type
Wed 10:59:01 AM 35.3103 -79.5475 28° Northeast 287 330 8,400  Level Washington Center
Wed 11:00:20 AM 35.4222 -79.5094 15° North 325 374 9,000 716 Climbing Washington Center
Wed 11:01:15 AM 35.5044 -79.4778 17° North 351 404 10,000 522 Climbing Washington Center
Wed 11:02:00 AM 35.6192 -79.4067 73° East  Level FlightAware Approximate
Wed 11:02:15 AM 35.5975 -79.4417 18° North 356 410 10,000  Level Washington Center
Wed 11:03:00 AM 35.6596 -79.2909 61° Northeast  Level FlightAware Approximate
Wed 11:03:16 AM 35.6522 -79.3625 50° Northeast 324 373 10,000  Level Washington Center
Wed 11:04:00 AM 35.7166 -79.1890 28° Northeast  Level FlightAware Approximate
Wed 11:04:17 AM 35.6892 -79.2439 69° East 324 373 11,400  Level Washington Center
Wed 11:05:15 AM 35.7522 -79.1675 45° Northeast 336 387 12,900 1,576 Climbing Washington Center
Wed 11:06:15 AM 35.8458 -79.1000 30° Northeast 336 387 14,500 1,438 Climbing Washington Center
Wed 11:07:16 AM 35.9247 -79.0444 30° Northeast 348 400 15,800 1,279 Climbing Washington Center
Wed 11:08:17 AM 36.0164 -78.9767 31° Northeast 369 425 17,100 1,140 Climbing Washington Center
Wed 11:09:17 AM 36.1081 -78.9086 31° Northeast 375 432 18,100 1,220 Climbing Washington Center
Wed 11:10:15 AM 36.2017 -78.8406 30° Northeast 380 437 19,500 1,271 Climbing Washington Center
Wed 11:11:15 AM 36.2933 -78.7719 31° Northeast 380 437 20,600 1,091 Climbing Washington Center
Wed 11:12:16 AM 36.3892 -78.7011 31° Northeast 385 443 21,700 1,180 Climbing Washington Center
Wed 11:13:17 AM 36.4747 -78.6142 39° Northeast 390 449 23,000 1,289 Climbing Washington Center
Wed 11:14:17 AM 36.5544 -78.5164 45° Northeast 395 455 24,300 1,261 Climbing Washington Center
Wed 11:15:16 AM 36.6381 -78.4186 43° Northeast 395 455 25,500 1,033 Climbing Washington Center
Wed 11:17:17 AM 36.8053 -78.2172 44° Northeast 407 468 27,400 961 Climbing Washington Center
Wed 11:18:17 AM 36.8911 -78.1161 43° Northeast 412 474 28,400 1,068 Climbing Washington Center
Wed 11:19:15 AM 36.9744 -78.0097 46° Northeast 412 474 29,500 1,059 Climbing Washington Center
Wed 11:20:16 AM 37.0622 -77.9083 43° Northeast 412 474 30,500 942 Climbing Washington Center
Wed 11:21:16 AM 37.1453 -77.8092 44° Northeast 412 474 31,400 893 Climbing Washington Center
Wed 11:22:17 AM 37.2328 -77.7047 44° Northeast 412 474 32,300 857 Climbing Washington Center
Wed 11:23:15 AM 37.3200 -77.5975 44° Northeast 412 474 33,100 763 Climbing Washington Center
Wed 11:24:15 AM 37.4072 -77.4925 44° Northeast 417 480 33,800 750 Climbing Washington Center
Wed 11:25:15 AM 37.4944 -77.3847 44° Northeast 423 487 34,600 750 Climbing Washington Center
Wed 11:26:15 AM 37.5858 -77.2822 42° Northeast 428 493 35,300 694 Climbing Washington Center
Wed 11:27:16 AM 37.6728 -77.1711 45° Northeast 428 493 36,000 645 Climbing Washington Center
Wed 11:28:16 AM 37.7597 -77.0628 45° Northeast 433 498 36,600 500 Climbing Washington Center
Wed 11:29:16 AM 37.8464 -76.9514 45° Northeast 433 498 37,000 202 Climbing Washington Center
Wed 11:30:15 AM 37.9372 -76.8397 44° Northeast 433 498 37,000  Level Washington Center
Wed 11:31:15 AM 38.0303 -76.7228 45° Northeast 444 511 37,000  Level Washington Center
Wed 11:32:16 AM 38.1250 -76.6053 44° Northeast 457 526 37,000  Level Washington Center
Wed 11:33:17 AM 38.2219 -76.4850 44° Northeast 467 537 37,000  Level Washington Center
Wed 11:34:17 AM 38.3272 -76.3644 42° Northeast 467 537 37,000  Level Washington Center
Wed 11:35:15 AM 38.4297 -76.2675 37° Northeast 462 532 37,000  Level Washington Center
Wed 11:36:16 AM 38.5347 -76.1678 37° Northeast 462 532 37,000  Level Washington Center
Wed 11:37:17 AM 38.6456 -76.0728 34° Northeast 470 541 37,000  Level Washington Center
Wed 11:38:17 AM 38.7500 -75.9750 36° Northeast 470 541 37,000  Level Washington Center
Wed 11:39:15 AM 38.8547 -75.8742 37° Northeast 470 541 37,000  Level Washington Center
Wed 11:40:16 AM 38.9611 -75.7758 36° Northeast 470 541 37,000  Level Washington Center
Wed 11:41:15 AM 39.0656 -75.6744 37° Northeast 470 541 37,000 -50 Level Washington Center
Wed 11:42:15 AM 39.1717 -75.5783 35° Northeast 470 541 36,900 -298 Descending Washington Center
Wed 11:43:16 AM 39.2758 -75.4789 36° Northeast 470 541 36,400 -639 Descending Washington Center
Wed 11:44:17 AM 39.3842 -75.3822 35° Northeast 470 541 35,600 -908 Descending Washington Center
Wed 11:45:15 AM 39.4903 -75.2850 35° Northeast 470 541 34,600 -1,008 Descending Washington Center
Wed 11:46:16 AM 39.5961 -75.1903 35° Northeast 470 541 33,600 -511 Descending Washington Center
Wed 11:48:23 AM 39.8214 -74.9872 35° Northeast 472 543 33,000 -193 Descending New York Center
Wed 11:49:23 AM 39.9250 -74.8881 36° Northeast 459 528 33,000  Level New York Center
Wed 11:50:23 AM 40.0147 -74.7631 47° Northeast 459 528 33,000  Level New York Center
Wed 11:51:23 AM 40.0836 -74.6369 54° Northeast 473 544 33,000  Level New York Center
Wed 11:52:23 AM 40.1697 -74.4869 53° Northeast 468 539 33,000 -350 Level New York Center
Wed 11:53:23 AM 40.2428 -74.3467 56° Northeast 474 545 32,300 -850 Descending New York Center
Wed 11:54:23 AM 40.3156 -74.2089 55° Northeast 469 540 31,300 -1,050 Descending New York Center
Wed 11:55:23 AM 40.3906 -74.0683 55° Northeast 469 540 30,200 -1,212 Descending New York Center
Wed 11:57:41 AM 40.5567 -73.7594 55° Northeast 453 521 27,300 -1,333 Descending Boston Center
Wed 11:58:41 AM 40.6250 -73.6242 56° Northeast 467 537 25,800 -1,488 Descending Boston Center
Wed 11:59:42 AM 40.6992 -73.4803 56° Northeast 472 543 24,300 -1,377 Descending Boston Center
Wed 12:00:43 PM 40.7692 -73.3417 56° Northeast 472 543 23,000 -655 Descending Boston Center
Wed 12:01:41 PM 40.8639 -73.2222 44° Northeast 446 513 23,000 -454 Level Boston Center
Wed 12:02:42 PM 40.9561 -73.1133 42° Northeast 434 499 22,100 -1,091 Descending Boston Center
Wed 12:03:42 PM 41.0528 -73.0069 40° Northeast 441 507 20,800 -1,300 Descending Boston Center
Wed 12:04:42 PM 41.1450 -72.8950 42° Northeast 441 507 19,500 -1,438 Descending Boston Center
Wed 12:05:43 PM 41.2350 -72.7878 42° Northeast 435 501 17,900 -1,339 Descending Boston Center
Wed 12:06:43 PM 41.3247 -72.6944 38° Northeast 423 487 16,800 -1,128 Descending Boston Center
Wed 12:07:40 PM 41.4206 -72.6506 19° North 395 455 15,700 -915 Descending Boston Center
Wed 12:08:41 PM 41.5375 -72.5981 19° North 395 455 15,000 -541 Descending Boston Center
Wed 12:09:42 PM 41.6231 -72.5344 29° Northeast 390 449 14,600 -750 Descending Boston Center
Wed 12:10:41 PM 41.7189 -72.4344 38° Northeast 387 445 13,500 -942 Descending Boston Center
Wed 12:11:43 PM 41.7981 -72.3539 37° Northeast 392 451 12,700 -934 Descending Boston Center
Wed 12:12:43 PM 41.8958 -72.2533 37° Northeast 387 445 11,600 -939 Descending Boston Center
Wed 12:13:38 PM 41.9708 -72.1692 40° Northeast 383 441 10,900 -1,109 Descending Boston Center
Wed 12:14:42 PM 42.0478 -72.0878 38° Northeast 362 417 9,400 -1,548 Descending Boston Center
Wed 12:15:42 PM 42.1142 -72.0203 37° Northeast 294 338 7,700 -1,613 Descending Boston Center
Wed 12:16:41 PM 42.1742 -71.9528 40° Northeast 291 335 6,200 -1,350 Descending Boston Center
Wed 12:17:42 PM 42.2364 -71.8847 39° Northeast 274 315 5,000 -346 Descending Boston Center
Wed 12:20:09 PM 42.3833 -71.7167 40° Northeast 265 305 5,000 -56 Level KA90
Wed 12:21:15 PM 42.4333 -71.6333 51° Northeast 268 308 4,800 -619 Descending KA90
Wed 12:22:15 PM 42.4833 -71.5667 45° Northeast 254 292 3,700 -900 Descending KA90
Wed 12:23:15 PM 42.5000 -71.4833 75° East 237 273 3,000 -905 Descending KA90
Wed 12:24:21 PM 42.5000 -71.3833 90° East 263 303 1,800 -750 Descending KA90
Wed 12:25:15 PM 42.5000 -71.3000 90° East 222 255 1,500 -421 Descending KA90
Wed 12:26:15 PM 42.4833 -71.2500 114° Southeast 155 178 1,000 -524 Descending KA90
Wed 12:27:21 PM 42.4667 -71.2667 216° Southwest 123 142 400 -545 Descending KA90
Wed 12:29:00 PM 42.4667 -71.2833 236° Southwest  Level FlightAware Approximate
Wed 12:36:00 PM 42.4699 -71.2890 236° Southwest  Level Estimated
Wed 12:37:00 PM 42.4667 -71.2833 236° Southwest  Level FlightAware Approximate
Wed 12:38:00 PM 42.4699 -71.2890 236° Southwest  Level Estimated
Wed 12:39:00 PM 42.4667 -71.2833 236° Southwest  Level FlightAware Approximate
Wed 12:40:00 PM 42.4699 -71.2890 236° Southwest  Level Estimated
Wed 12:41:00 PM 42.4667 -71.2833 236° Southwest  Level FlightAware Approximate
Wed 12:42:00 PM 42.4699 -71.2890 236° Southwest  Level Estimated

Login

Don't have an account? Register now (free) for customized features, flight alerts, and more!